sensor_id;sensor_type;location;lat;lon;timestamp;P1;durP1;ratioP1;P2;durP2;ratioP2
73266;SDS011;61495;53.400;7.608;2022-12-18T00:00:42;44.92;;;16.98;;
73266;SDS011;61495;53.400;7.608;2022-12-18T00:03:08;46.55;;;16.17;;
73266;SDS011;61495;53.400;7.608;2022-12-18T00:05:34;52.25;;;17.90;;
73266;SDS011;61495;53.400;7.608;2022-12-18T00:08:00;42.42;;;15.23;;
73266;SDS011;61495;53.400;7.608;2022-12-18T00:10:27;46.03;;;16.90;;
73266;SDS011;61495;53.400;7.608;2022-12-18T00:12:53;50.38;;;16.83;;
73266;SDS011;61495;53.400;7.608;2022-12-18T00:15:18;48.70;;;17.58;;
73266;SDS011;61495;53.400;7.608;2022-12-18T00:17:44;51.40;;;16.25;;
73266;SDS011;61495;53.400;7.608;2022-12-18T00:20:09;44.97;;;17.30;;
73266;SDS011;61495;53.400;7.608;2022-12-18T00:22:35;55.00;;;19.00;;
73266;SDS011;61495;53.400;7.608;2022-12-18T00:25:00;48.00;;;16.52;;
73266;SDS011;61495;53.400;7.608;2022-12-18T00:29:51;44.33;;;14.70;;
73266;SDS011;61495;53.400;7.608;2022-12-18T00:34:41;38.90;;;12.73;;
73266;SDS011;61495;53.400;7.608;2022-12-18T00:37:07;56.90;;;17.85;;
73266;SDS011;61495;53.400;7.608;2022-12-18T00:39:32;41.83;;;16.25;;
73266;SDS011;61495;53.400;7.608;2022-12-18T00:41:58;43.17;;;14.77;;
73266;SDS011;61495;53.400;7.608;2022-12-18T00:44:42;43.05;;;15.32;;
73266;SDS011;61495;53.400;7.608;2022-12-18T00:47:07;43.35;;;14.88;;
73266;SDS011;61495;53.400;7.608;2022-12-18T00:49:32;49.92;;;16.33;;
73266;SDS011;61495;53.400;7.608;2022-12-18T00:51:58;43.72;;;14.48;;
73266;SDS011;61495;53.400;7.608;2022-12-18T00:54:23;42.35;;;14.32;;
73266;SDS011;61495;53.400;7.608;2022-12-18T00:56:49;49.28;;;17.45;;
73266;SDS011;61495;53.400;7.608;2022-12-18T00:59:14;45.78;;;16.17;;
73266;SDS011;61495;53.400;7.608;2022-12-18T01:01:40;46.10;;;15.55;;
73266;SDS011;61495;53.400;7.608;2022-12-18T01:04:06;38.67;;;15.40;;
73266;SDS011;61495;53.400;7.608;2022-12-18T01:06:31;51.42;;;17.25;;
73266;SDS011;61495;53.400;7.608;2022-12-18T01:08:57;50.85;;;15.98;;
73266;SDS011;61495;53.400;7.608;2022-12-18T01:11:23;46.55;;;16.38;;
73266;SDS011;61495;53.400;7.608;2022-12-18T01:16:16;42.05;;;14.30;;
73266;SDS011;61495;53.400;7.608;2022-12-18T01:18:41;50.33;;;15.43;;
73266;SDS011;61495;53.400;7.608;2022-12-18T01:21:07;46.70;;;16.48;;
73266;SDS011;61495;53.400;7.608;2022-12-18T01:23:34;47.08;;;17.73;;
73266;SDS011;61495;53.400;7.608;2022-12-18T01:26:10;44.00;;;15.75;;
73266;SDS011;61495;53.400;7.608;2022-12-18T01:28:38;42.78;;;14.48;;
73266;SDS011;61495;53.400;7.608;2022-12-18T01:33:36;40.83;;;15.50;;
73266;SDS011;61495;53.400;7.608;2022-12-18T01:36:02;48.75;;;15.63;;
73266;SDS011;61495;53.400;7.608;2022-12-18T01:38:28;40.67;;;15.85;;
73266;SDS011;61495;53.400;7.608;2022-12-18T01:40:59;44.63;;;15.20;;
73266;SDS011;61495;53.400;7.608;2022-12-18T01:46:08;40.47;;;13.00;;
73266;SDS011;61495;53.400;7.608;2022-12-18T01:48:34;40.47;;;14.07;;
73266;SDS011;61495;53.400;7.608;2022-12-18T01:50:59;40.38;;;14.30;;
73266;SDS011;61495;53.400;7.608;2022-12-18T01:53:25;42.20;;;14.43;;
73266;SDS011;61495;53.400;7.608;2022-12-18T01:55:55;42.58;;;14.80;;
73266;SDS011;61495;53.400;7.608;2022-12-18T01:58:24;42.75;;;14.60;;
73266;SDS011;61495;53.400;7.608;2022-12-18T02:01:12;38.45;;;13.40;;
73266;SDS011;61495;53.400;7.608;2022-12-18T02:03:40;34.60;;;12.40;;
73266;SDS011;61495;53.400;7.608;2022-12-18T02:06:17;38.42;;;13.90;;
73266;SDS011;61495;53.400;7.608;2022-12-18T02:09:07;34.75;;;14.32;;
73266;SDS011;61495;53.400;7.608;2022-12-18T02:14:45;43.17;;;13.43;;
73266;SDS011;61495;53.400;7.608;2022-12-18T02:17:29;48.75;;;15.43;;
73266;SDS011;61495;53.400;7.608;2022-12-18T02:20:09;45.65;;;14.30;;
73266;SDS011;61495;53.400;7.608;2022-12-18T02:22:49;33.65;;;13.60;;
73266;SDS011;61495;53.400;7.608;2022-12-18T02:27:50;34.55;;;13.18;;
73266;SDS011;61495;53.400;7.608;2022-12-18T02:30:18;42.35;;;15.45;;
73266;SDS011;61495;53.400;7.608;2022-12-18T02:35:14;34.45;;;12.18;;
73266;SDS011;61495;53.400;7.608;2022-12-18T02:37:44;35.75;;;13.57;;
73266;SDS011;61495;53.400;7.608;2022-12-18T02:40:12;34.42;;;12.63;;
73266;SDS011;61495;53.400;7.608;2022-12-18T02:42:40;35.88;;;12.93;;
73266;SDS011;61495;53.400;7.608;2022-12-18T02:45:06;40.47;;;15.10;;
73266;SDS011;61495;53.400;7.608;2022-12-18T02:47:32;37.85;;;14.38;;
73266;SDS011;61495;53.400;7.608;2022-12-18T03:00:31;34.38;;;13.40;;
73266;SDS011;61495;53.400;7.608;2022-12-18T03:02:59;36.72;;;13.13;;
73266;SDS011;61495;53.400;7.608;2022-12-18T03:05:33;36.50;;;12.70;;
73266;SDS011;61495;53.400;7.608;2022-12-18T03:08:07;34.95;;;13.77;;
73266;SDS011;61495;53.400;7.608;2022-12-18T03:13:12;35.85;;;12.45;;
73266;SDS011;61495;53.400;7.608;2022-12-18T03:15:47;35.80;;;12.63;;
73266;SDS011;61495;53.400;7.608;2022-12-18T03:18:16;40.47;;;13.80;;
73266;SDS011;61495;53.400;7.608;2022-12-18T03:20:51;35.78;;;13.80;;
73266;SDS011;61495;53.400;7.608;2022-12-18T03:23:22;36.83;;;14.43;;
73266;SDS011;61495;53.400;7.608;2022-12-18T03:25:53;37.30;;;13.95;;
73266;SDS011;61495;53.400;7.608;2022-12-18T03:28:22;39.72;;;12.95;;
73266;SDS011;61495;53.400;7.608;2022-12-18T03:30:54;39.10;;;13.73;;
73266;SDS011;61495;53.400;7.608;2022-12-18T03:33:25;37.25;;;13.88;;
73266;SDS011;61495;53.400;7.608;2022-12-18T03:35:55;36.33;;;12.73;;
73266;SDS011;61495;53.400;7.608;2022-12-18T03:38:21;38.83;;;13.18;;
73266;SDS011;61495;53.400;7.608;2022-12-18T03:43:19;38.50;;;14.75;;
73266;SDS011;61495;53.400;7.608;2022-12-18T03:45:58;37.40;;;13.55;;
73266;SDS011;61495;53.400;7.608;2022-12-18T03:48:51;37.63;;;14.02;;
73266;SDS011;61495;53.400;7.608;2022-12-18T03:51:26;46.10;;;15.23;;
73266;SDS011;61495;53.400;7.608;2022-12-18T03:54:01;37.60;;;12.20;;
73266;SDS011;61495;53.400;7.608;2022-12-18T03:56:30;41.03;;;13.15;;
73266;SDS011;61495;53.400;7.608;2022-12-18T03:58:58;36.03;;;13.30;;
73266;SDS011;61495;53.400;7.608;2022-12-18T04:01:34;36.53;;;12.55;;
73266;SDS011;61495;53.400;7.608;2022-12-18T04:04:04;36.17;;;12.57;;
73266;SDS011;61495;53.400;7.608;2022-12-18T04:06:32;35.88;;;12.50;;
73266;SDS011;61495;53.400;7.608;2022-12-18T04:08:59;32.13;;;12.80;;
73266;SDS011;61495;53.400;7.608;2022-12-18T04:11:25;35.42;;;12.32;;
73266;SDS011;61495;53.400;7.608;2022-12-18T04:13:53;32.50;;;12.55;;
73266;SDS011;61495;53.400;7.608;2022-12-18T04:16:23;33.20;;;11.85;;
73266;SDS011;61495;53.400;7.608;2022-12-18T04:18:51;35.53;;;12.10;;
73266;SDS011;61495;53.400;7.608;2022-12-18T04:21:16;32.90;;;11.80;;
73266;SDS011;61495;53.400;7.608;2022-12-18T04:23:42;36.83;;;12.93;;
73266;SDS011;61495;53.400;7.608;2022-12-18T04:26:07;34.25;;;13.13;;
73266;SDS011;61495;53.400;7.608;2022-12-18T04:28:33;33.33;;;12.73;;
73266;SDS011;61495;53.400;7.608;2022-12-18T04:30:58;36.03;;;12.68;;
73266;SDS011;61495;53.400;7.608;2022-12-18T04:33:23;38.60;;;12.13;;
73266;SDS011;61495;53.400;7.608;2022-12-18T04:35:49;37.42;;;12.57;;
73266;SDS011;61495;53.400;7.608;2022-12-18T04:38:14;39.50;;;11.90;;
73266;SDS011;61495;53.400;7.608;2022-12-18T04:40:40;33.50;;;11.73;;
73266;SDS011;61495;53.400;7.608;2022-12-18T04:43:05;35.95;;;13.25;;
73266;SDS011;61495;53.400;7.608;2022-12-18T04:45:31;28.80;;;11.20;;
73266;SDS011;61495;53.400;7.608;2022-12-18T04:50:24;34.97;;;11.18;;
73266;SDS011;61495;53.400;7.608;2022-12-18T04:52:49;35.92;;;13.00;;
73266;SDS011;61495;53.400;7.608;2022-12-18T04:55:15;34.50;;;12.43;;
73266;SDS011;61495;53.400;7.608;2022-12-18T04:57:40;34.47;;;12.75;;
73266;SDS011;61495;53.400;7.608;2022-12-18T05:00:06;32.13;;;10.90;;
73266;SDS011;61495;53.400;7.608;2022-12-18T05:02:32;41.75;;;12.88;;
73266;SDS011;61495;53.400;7.608;2022-12-18T05:04:58;33.88;;;12.05;;
73266;SDS011;61495;53.400;7.608;2022-12-18T05:07:23;30.35;;;12.15;;
73266;SDS011;61495;53.400;7.608;2022-12-18T05:09:49;34.00;;;11.02;;
73266;SDS011;61495;53.400;7.608;2022-12-18T05:12:14;33.65;;;11.52;;
73266;SDS011;61495;53.400;7.608;2022-12-18T05:14:39;31.80;;;10.90;;
73266;SDS011;61495;53.400;7.608;2022-12-18T05:17:05;40.30;;;11.85;;
73266;SDS011;61495;53.400;7.608;2022-12-18T05:19:30;35.88;;;11.43;;
73266;SDS011;61495;53.400;7.608;2022-12-18T05:21:56;35.63;;;12.65;;
73266;SDS011;61495;53.400;7.608;2022-12-18T05:24:21;34.47;;;11.35;;
73266;SDS011;61495;53.400;7.608;2022-12-18T05:26:47;35.75;;;12.00;;
73266;SDS011;61495;53.400;7.608;2022-12-18T05:29:12;27.90;;;10.18;;
73266;SDS011;61495;53.400;7.608;2022-12-18T05:31:38;31.35;;;12.00;;
73266;SDS011;61495;53.400;7.608;2022-12-18T05:34:04;29.08;;;10.85;;
73266;SDS011;61495;53.400;7.608;2022-12-18T05:36:29;33.47;;;11.80;;
73266;SDS011;61495;53.400;7.608;2022-12-18T05:38:55;31.92;;;10.65;;
73266;SDS011;61495;53.400;7.608;2022-12-18T05:41:20;24.63;;;9.98;;
73266;SDS011;61495;53.400;7.608;2022-12-18T05:43:46;30.85;;;11.43;;
73266;SDS011;61495;53.400;7.608;2022-12-18T05:46:13;27.75;;;10.88;;
73266;SDS011;61495;53.400;7.608;2022-12-18T05:48:40;31.85;;;10.32;;
73266;SDS011;61495;53.400;7.608;2022-12-18T05:51:06;26.42;;;9.88;;
73266;SDS011;61495;53.400;7.608;2022-12-18T05:53:33;30.83;;;10.82;;
73266;SDS011;61495;53.400;7.608;2022-12-18T05:56:01;29.73;;;10.05;;
73266;SDS011;61495;53.400;7.608;2022-12-18T05:58:28;27.02;;;10.27;;
73266;SDS011;61495;53.400;7.608;2022-12-18T06:00:54;27.27;;;9.45;;
73266;SDS011;61495;53.400;7.608;2022-12-18T06:03:20;27.25;;;10.05;;
73266;SDS011;61495;53.400;7.608;2022-12-18T06:05:45;24.48;;;9.13;;
73266;SDS011;61495;53.400;7.608;2022-12-18T06:08:11;25.52;;;10.00;;
73266;SDS011;61495;53.400;7.608;2022-12-18T06:10:38;26.75;;;10.73;;
73266;SDS011;61495;53.400;7.608;2022-12-18T06:13:05;24.60;;;10.02;;
73266;SDS011;61495;53.400;7.608;2022-12-18T06:15:30;25.15;;;9.45;;
73266;SDS011;61495;53.400;7.608;2022-12-18T06:17:56;24.95;;;9.80;;
73266;SDS011;61495;53.400;7.608;2022-12-18T06:20:22;24.42;;;9.45;;
73266;SDS011;61495;53.400;7.608;2022-12-18T06:22:47;27.95;;;10.20;;
73266;SDS011;61495;53.400;7.608;2022-12-18T06:25:13;24.55;;;9.23;;
73266;SDS011;61495;53.400;7.608;2022-12-18T06:27:38;24.02;;;10.45;;
73266;SDS011;61495;53.400;7.608;2022-12-18T06:30:04;25.98;;;8.95;;
73266;SDS011;61495;53.400;7.608;2022-12-18T06:32:30;29.33;;;10.65;;
73266;SDS011;61495;53.400;7.608;2022-12-18T06:34:55;26.73;;;10.18;;
73266;SDS011;61495;53.400;7.608;2022-12-18T06:37:21;25.50;;;10.30;;
73266;SDS011;61495;53.400;7.608;2022-12-18T06:39:49;21.95;;;8.88;;
73266;SDS011;61495;53.400;7.608;2022-12-18T06:42:15;21.52;;;9.27;;
73266;SDS011;61495;53.400;7.608;2022-12-18T06:44:40;22.38;;;9.07;;
73266;SDS011;61495;53.400;7.608;2022-12-18T06:47:06;24.42;;;8.93;;
73266;SDS011;61495;53.400;7.608;2022-12-18T06:49:31;22.45;;;9.07;;
73266;SDS011;61495;53.400;7.608;2022-12-18T06:51:56;22.17;;;9.65;;
73266;SDS011;61495;53.400;7.608;2022-12-18T06:54:22;25.10;;;9.38;;
73266;SDS011;61495;53.400;7.608;2022-12-18T06:56:47;21.30;;;8.75;;
73266;SDS011;61495;53.400;7.608;2022-12-18T06:59:13;24.40;;;9.88;;
73266;SDS011;61495;53.400;7.608;2022-12-18T07:01:39;25.85;;;7.90;;
73266;SDS011;61495;53.400;7.608;2022-12-18T07:04:04;18.65;;;9.18;;
73266;SDS011;61495;53.400;7.608;2022-12-18T07:06:30;21.88;;;9.23;;
73266;SDS011;61495;53.400;7.608;2022-12-18T07:08:55;28.10;;;8.75;;
73266;SDS011;61495;53.400;7.608;2022-12-18T07:11:21;22.60;;;8.85;;
73266;SDS011;61495;53.400;7.608;2022-12-18T07:13:47;22.98;;;8.73;;
73266;SDS011;61495;53.400;7.608;2022-12-18T07:16:14;21.73;;;8.30;;
73266;SDS011;61495;53.400;7.608;2022-12-18T07:18:41;21.00;;;8.40;;
73266;SDS011;61495;53.400;7.608;2022-12-18T07:21:07;19.30;;;7.53;;
73266;SDS011;61495;53.400;7.608;2022-12-18T07:23:35;21.20;;;8.02;;
73266;SDS011;61495;53.400;7.608;2022-12-18T07:26:04;18.58;;;7.82;;
73266;SDS011;61495;53.400;7.608;2022-12-18T07:28:31;18.35;;;8.68;;
73266;SDS011;61495;53.400;7.608;2022-12-18T07:31:01;20.48;;;8.13;;
73266;SDS011;61495;53.400;7.608;2022-12-18T07:33:32;20.27;;;9.10;;
73266;SDS011;61495;53.400;7.608;2022-12-18T07:36:01;17.83;;;7.32;;
73266;SDS011;61495;53.400;7.608;2022-12-18T07:38:28;20.85;;;8.43;;
73266;SDS011;61495;53.400;7.608;2022-12-18T07:40:54;17.88;;;7.10;;
73266;SDS011;61495;53.400;7.608;2022-12-18T07:43:19;16.92;;;7.60;;
73266;SDS011;61495;53.400;7.608;2022-12-18T07:45:45;19.25;;;7.78;;
73266;SDS011;61495;53.400;7.608;2022-12-18T07:48:10;21.25;;;8.23;;
73266;SDS011;61495;53.400;7.608;2022-12-18T07:50:36;17.35;;;7.10;;
73266;SDS011;61495;53.400;7.608;2022-12-18T07:53:02;18.75;;;7.45;;
73266;SDS011;61495;53.400;7.608;2022-12-18T07:55:29;17.58;;;7.35;;
73266;SDS011;61495;53.400;7.608;2022-12-18T07:57:56;19.02;;;8.00;;
73266;SDS011;61495;53.400;7.608;2022-12-18T08:00:21;20.35;;;8.05;;
73266;SDS011;61495;53.400;7.608;2022-12-18T08:02:47;19.00;;;7.45;;
73266;SDS011;61495;53.400;7.608;2022-12-18T08:05:12;17.70;;;6.55;;
73266;SDS011;61495;53.400;7.608;2022-12-18T08:07:38;14.95;;;6.57;;
73266;SDS011;61495;53.400;7.608;2022-12-18T08:10:04;16.50;;;6.78;;
73266;SDS011;61495;53.400;7.608;2022-12-18T08:12:29;14.32;;;7.00;;
73266;SDS011;61495;53.400;7.608;2022-12-18T08:14:55;14.80;;;6.78;;
73266;SDS011;61495;53.400;7.608;2022-12-18T08:17:20;16.83;;;7.32;;
73266;SDS011;61495;53.400;7.608;2022-12-18T08:19:45;13.10;;;6.15;;
73266;SDS011;61495;53.400;7.608;2022-12-18T08:22:11;15.30;;;6.82;;
73266;SDS011;61495;53.400;7.608;2022-12-18T08:24:36;15.25;;;7.18;;
73266;SDS011;61495;53.400;7.608;2022-12-18T08:27:02;15.45;;;7.05;;
73266;SDS011;61495;53.400;7.608;2022-12-18T08:29:27;15.68;;;6.63;;
73266;SDS011;61495;53.400;7.608;2022-12-18T08:31:53;16.67;;;7.03;;
73266;SDS011;61495;53.400;7.608;2022-12-18T08:34:18;17.10;;;6.20;;
73266;SDS011;61495;53.400;7.608;2022-12-18T08:36:43;13.43;;;6.15;;
73266;SDS011;61495;53.400;7.608;2022-12-18T08:39:09;16.00;;;7.63;;
73266;SDS011;61495;53.400;7.608;2022-12-18T08:41:34;14.73;;;6.35;;
73266;SDS011;61495;53.400;7.608;2022-12-18T08:43:59;15.38;;;6.78;;
73266;SDS011;61495;53.400;7.608;2022-12-18T08:46:44;16.42;;;6.82;;
73266;SDS011;61495;53.400;7.608;2022-12-18T08:49:10;13.52;;;5.95;;
73266;SDS011;61495;53.400;7.608;2022-12-18T08:51:36;11.02;;;6.25;;
73266;SDS011;61495;53.400;7.608;2022-12-18T08:54:03;14.23;;;6.38;;
73266;SDS011;61495;53.400;7.608;2022-12-18T08:56:29;15.30;;;6.43;;
73266;SDS011;61495;53.400;7.608;2022-12-18T08:58:55;18.10;;;6.68;;
73266;SDS011;61495;53.400;7.608;2022-12-18T09:01:20;18.60;;;6.47;;
73266;SDS011;61495;53.400;7.608;2022-12-18T09:03:47;16.85;;;5.80;;
73266;SDS011;61495;53.400;7.608;2022-12-18T09:06:19;14.25;;;6.20;;
73266;SDS011;61495;53.400;7.608;2022-12-18T09:08:45;15.98;;;6.50;;
73266;SDS011;61495;53.400;7.608;2022-12-18T09:11:19;13.75;;;6.53;;
73266;SDS011;61495;53.400;7.608;2022-12-18T09:13:46;12.00;;;5.10;;
73266;SDS011;61495;53.400;7.608;2022-12-18T09:16:12;15.38;;;6.65;;
73266;SDS011;61495;53.400;7.608;2022-12-18T09:18:37;16.35;;;5.97;;
73266;SDS011;61495;53.400;7.608;2022-12-18T09:21:09;14.73;;;6.43;;
73266;SDS011;61495;53.400;7.608;2022-12-18T09:23:36;13.50;;;6.15;;
73266;SDS011;61495;53.400;7.608;2022-12-18T09:26:01;14.40;;;6.07;;
73266;SDS011;61495;53.400;7.608;2022-12-18T09:28:27;16.52;;;6.55;;
73266;SDS011;61495;53.400;7.608;2022-12-18T09:30:53;15.68;;;6.80;;
73266;SDS011;61495;53.400;7.608;2022-12-18T09:33:18;11.20;;;5.82;;
73266;SDS011;61495;53.400;7.608;2022-12-18T09:35:44;13.63;;;5.95;;
73266;SDS011;61495;53.400;7.608;2022-12-18T09:38:11;14.23;;;6.13;;
73266;SDS011;61495;53.400;7.608;2022-12-18T09:40:52;15.15;;;6.45;;
73266;SDS011;61495;53.400;7.608;2022-12-18T09:43:26;15.98;;;6.65;;
73266;SDS011;61495;53.400;7.608;2022-12-18T09:46:07;14.50;;;6.45;;
73266;SDS011;61495;53.400;7.608;2022-12-18T09:48:36;14.48;;;6.45;;
73266;SDS011;61495;53.400;7.608;2022-12-18T09:51:10;10.80;;;5.25;;
73266;SDS011;61495;53.400;7.608;2022-12-18T09:53:41;16.15;;;6.43;;
73266;SDS011;61495;53.400;7.608;2022-12-18T09:56:12;13.73;;;5.80;;
73266;SDS011;61495;53.400;7.608;2022-12-18T09:58:45;12.70;;;5.43;;
73266;SDS011;61495;53.400;7.608;2022-12-18T10:01:15;12.07;;;5.28;;
73266;SDS011;61495;53.400;7.608;2022-12-18T10:03:46;13.90;;;5.68;;
73266;SDS011;61495;53.400;7.608;2022-12-18T10:09:28;15.73;;;5.95;;
73266;SDS011;61495;53.400;7.608;2022-12-18T10:19:59;11.10;;;5.45;;
73266;SDS011;61495;53.400;7.608;2022-12-18T10:25:05;12.73;;;5.13;;
73266;SDS011;61495;53.400;7.608;2022-12-18T10:27:43;12.88;;;5.75;;
73266;SDS011;61495;53.400;7.608;2022-12-18T10:30:13;10.77;;;5.68;;
73266;SDS011;61495;53.400;7.608;2022-12-18T10:32:41;12.60;;;6.25;;
73266;SDS011;61495;53.400;7.608;2022-12-18T10:35:15;12.93;;;6.00;;
73266;SDS011;61495;53.400;7.608;2022-12-18T10:40:33;11.13;;;5.60;;
73266;SDS011;61495;53.400;7.608;2022-12-18T10:43:13;9.73;;;4.78;;
73266;SDS011;61495;53.400;7.608;2022-12-18T10:45:40;11.57;;;4.78;;
73266;SDS011;61495;53.400;7.608;2022-12-18T10:48:19;11.20;;;5.78;;
73266;SDS011;61495;53.400;7.608;2022-12-18T10:50:47;9.88;;;4.93;;
73266;SDS011;61495;53.400;7.608;2022-12-18T10:53:18;14.10;;;5.45;;
73266;SDS011;61495;53.400;7.608;2022-12-18T10:55:45;11.52;;;4.93;;
73266;SDS011;61495;53.400;7.608;2022-12-18T10:58:16;12.52;;;5.57;;
73266;SDS011;61495;53.400;7.608;2022-12-18T11:00:42;9.60;;;4.60;;
73266;SDS011;61495;53.400;7.608;2022-12-18T11:06:03;8.75;;;4.32;;
73266;SDS011;61495;53.400;7.608;2022-12-18T11:08:30;14.23;;;5.00;;
73266;SDS011;61495;53.400;7.608;2022-12-18T11:10:56;8.93;;;4.93;;
73266;SDS011;61495;53.400;7.608;2022-12-18T11:13:23;10.57;;;4.93;;
73266;SDS011;61495;53.400;7.608;2022-12-18T11:15:50;11.57;;;4.90;;
73266;SDS011;61495;53.400;7.608;2022-12-18T11:18:17;10.65;;;4.38;;
73266;SDS011;61495;53.400;7.608;2022-12-18T11:21:11;12.70;;;4.68;;
73266;SDS011;61495;53.400;7.608;2022-12-18T11:23:43;10.98;;;4.72;;
73266;SDS011;61495;53.400;7.608;2022-12-18T11:26:19;10.55;;;4.68;;
73266;SDS011;61495;53.400;7.608;2022-12-18T11:28:47;8.82;;;4.47;;
73266;SDS011;61495;53.400;7.608;2022-12-18T11:31:23;10.63;;;5.30;;
73266;SDS011;61495;53.400;7.608;2022-12-18T11:34:13;9.98;;;5.13;;
73266;SDS011;61495;53.400;7.608;2022-12-18T11:36:45;13.70;;;4.95;;
73266;SDS011;61495;53.400;7.608;2022-12-18T11:39:18;11.10;;;5.15;;
73266;SDS011;61495;53.400;7.608;2022-12-18T11:42:04;11.30;;;5.35;;
73266;SDS011;61495;53.400;7.608;2022-12-18T11:50:18;10.30;;;5.53;;
73266;SDS011;61495;53.400;7.608;2022-12-18T11:52:48;9.32;;;4.82;;
73266;SDS011;61495;53.400;7.608;2022-12-18T11:55:15;10.15;;;5.50;;
73266;SDS011;61495;53.400;7.608;2022-12-18T12:00:23;11.55;;;5.25;;
73266;SDS011;61495;53.400;7.608;2022-12-18T12:08:38;9.10;;;4.72;;
73266;SDS011;61495;53.400;7.608;2022-12-18T12:11:48;11.57;;;5.03;;
73266;SDS011;61495;53.400;7.608;2022-12-18T12:14:21;9.18;;;5.20;;
73266;SDS011;61495;53.400;7.608;2022-12-18T12:16:57;12.73;;;5.50;;
73266;SDS011;61495;53.400;7.608;2022-12-18T12:38:55;11.82;;;5.40;;
73266;SDS011;61495;53.400;7.608;2022-12-18T12:41:25;9.57;;;4.90;;
73266;SDS011;61495;53.400;7.608;2022-12-18T12:44:15;9.27;;;5.10;;
73266;SDS011;61495;53.400;7.608;2022-12-18T12:49:17;8.63;;;4.50;;
73266;SDS011;61495;53.400;7.608;2022-12-18T12:51:47;11.35;;;5.32;;
73266;SDS011;61495;53.400;7.608;2022-12-18T12:54:23;10.77;;;5.10;;
73266;SDS011;61495;53.400;7.608;2022-12-18T12:59:47;12.32;;;5.60;;
73266;SDS011;61495;53.400;7.608;2022-12-18T13:02:35;10.40;;;4.65;;
73266;SDS011;61495;53.400;7.608;2022-12-18T13:08:23;11.02;;;4.93;;
73266;SDS011;61495;53.400;7.608;2022-12-18T13:10:59;13.90;;;4.80;;
73266;SDS011;61495;53.400;7.608;2022-12-18T13:13:50;9.15;;;4.53;;
73266;SDS011;61495;53.400;7.608;2022-12-18T13:16:18;11.35;;;5.00;;
73266;SDS011;61495;53.400;7.608;2022-12-18T13:18:55;11.88;;;4.88;;
73266;SDS011;61495;53.400;7.608;2022-12-18T13:21:27;10.82;;;4.10;;
73266;SDS011;61495;53.400;7.608;2022-12-18T13:23:56;11.38;;;4.90;;
73266;SDS011;61495;53.400;7.608;2022-12-18T13:26:40;11.05;;;5.28;;
73266;SDS011;61495;53.400;7.608;2022-12-18T13:29:06;11.98;;;4.65;;
73266;SDS011;61495;53.400;7.608;2022-12-18T13:34:19;10.82;;;5.20;;
73266;SDS011;61495;53.400;7.608;2022-12-18T13:36:49;12.35;;;4.60;;
73266;SDS011;61495;53.400;7.608;2022-12-18T13:41:47;11.57;;;4.78;;
73266;SDS011;61495;53.400;7.608;2022-12-18T13:44:25;10.73;;;4.57;;
73266;SDS011;61495;53.400;7.608;2022-12-18T13:46:51;12.98;;;5.13;;
73266;SDS011;61495;53.400;7.608;2022-12-18T13:52:27;12.23;;;5.20;;
73266;SDS011;61495;53.400;7.608;2022-12-18T13:54:55;9.75;;;5.25;;
73266;SDS011;61495;53.400;7.608;2022-12-18T13:57:26;11.88;;;5.82;;
73266;SDS011;61495;53.400;7.608;2022-12-18T13:59:59;9.85;;;5.38;;
73266;SDS011;61495;53.400;7.608;2022-12-18T14:02:44;11.57;;;5.38;;
73266;SDS011;61495;53.400;7.608;2022-12-18T14:05:21;11.70;;;5.00;;
73266;SDS011;61495;53.400;7.608;2022-12-18T14:08:05;10.95;;;4.75;;
73266;SDS011;61495;53.400;7.608;2022-12-18T14:10:33;9.60;;;4.70;;
73266;SDS011;61495;53.400;7.608;2022-12-18T14:13:02;9.38;;;4.95;;
73266;SDS011;61495;53.400;7.608;2022-12-18T14:15:40;11.63;;;5.18;;
73266;SDS011;61495;53.400;7.608;2022-12-18T14:18:23;10.38;;;5.35;;
73266;SDS011;61495;53.400;7.608;2022-12-18T14:21:23;9.02;;;4.40;;
73266;SDS011;61495;53.400;7.608;2022-12-18T14:26:43;9.43;;;4.30;;
73266;SDS011;61495;53.400;7.608;2022-12-18T14:32:03;9.15;;;4.05;;
73266;SDS011;61495;53.400;7.608;2022-12-18T14:34:34;9.13;;;4.30;;
73266;SDS011;61495;53.400;7.608;2022-12-18T14:36:59;8.77;;;4.05;;
73266;SDS011;61495;53.400;7.608;2022-12-18T14:39:25;9.65;;;4.43;;
73266;SDS011;61495;53.400;7.608;2022-12-18T14:41:50;8.80;;;3.67;;
73266;SDS011;61495;53.400;7.608;2022-12-18T14:44:16;8.30;;;3.88;;
73266;SDS011;61495;53.400;7.608;2022-12-18T14:46:43;9.85;;;4.57;;
73266;SDS011;61495;53.400;7.608;2022-12-18T14:49:21;7.68;;;3.70;;
73266;SDS011;61495;53.400;7.608;2022-12-18T14:51:52;9.00;;;3.50;;
73266;SDS011;61495;53.400;7.608;2022-12-18T14:54:20;6.97;;;3.88;;
73266;SDS011;61495;53.400;7.608;2022-12-18T14:56:51;8.13;;;3.90;;
73266;SDS011;61495;53.400;7.608;2022-12-18T14:59:51;8.18;;;3.83;;
73266;SDS011;61495;53.400;7.608;2022-12-18T15:02:27;10.50;;;3.95;;
73266;SDS011;61495;53.400;7.608;2022-12-18T15:05:15;7.10;;;3.63;;
73266;SDS011;61495;53.400;7.608;2022-12-18T15:07:50;7.72;;;3.92;;
73266;SDS011;61495;53.400;7.608;2022-12-18T15:10:18;8.48;;;3.63;;
73266;SDS011;61495;53.400;7.608;2022-12-18T15:12:46;8.57;;;3.28;;
73266;SDS011;61495;53.400;7.608;2022-12-18T15:20:54;10.75;;;4.80;;
73266;SDS011;61495;53.400;7.608;2022-12-18T15:26:12;10.27;;;4.05;;
73266;SDS011;61495;53.400;7.608;2022-12-18T15:28:46;9.50;;;4.00;;
73266;SDS011;61495;53.400;7.608;2022-12-18T15:33:41;7.53;;;3.77;;
73266;SDS011;61495;53.400;7.608;2022-12-18T15:36:24;8.90;;;4.18;;
73266;SDS011;61495;53.400;7.608;2022-12-18T15:38:55;8.48;;;4.13;;
73266;SDS011;61495;53.400;7.608;2022-12-18T15:41:22;7.38;;;4.22;;
73266;SDS011;61495;53.400;7.608;2022-12-18T15:46:15;10.02;;;4.45;;
73266;SDS011;61495;53.400;7.608;2022-12-18T15:48:44;9.52;;;4.50;;
73266;SDS011;61495;53.400;7.608;2022-12-18T15:51:15;8.93;;;4.30;;
73266;SDS011;61495;53.400;7.608;2022-12-18T15:53:46;11.02;;;4.53;;
73266;SDS011;61495;53.400;7.608;2022-12-18T15:56:13;8.50;;;3.90;;
73266;SDS011;61495;53.400;7.608;2022-12-18T15:58:59;8.10;;;3.88;;
73266;SDS011;61495;53.400;7.608;2022-12-18T16:01:26;9.13;;;4.70;;
73266;SDS011;61495;53.400;7.608;2022-12-18T16:03:53;8.27;;;4.45;;
73266;SDS011;61495;53.400;7.608;2022-12-18T16:06:20;7.70;;;4.25;;
73266;SDS011;61495;53.400;7.608;2022-12-18T16:08:46;9.15;;;4.20;;
73266;SDS011;61495;53.400;7.608;2022-12-18T16:11:23;9.90;;;4.50;;
73266;SDS011;61495;53.400;7.608;2022-12-18T16:14:15;9.45;;;3.47;;
73266;SDS011;61495;53.400;7.608;2022-12-18T16:16:43;8.48;;;3.72;;
73266;SDS011;61495;53.400;7.608;2022-12-18T16:19:10;7.57;;;3.42;;
73266;SDS011;61495;53.400;7.608;2022-12-18T16:21:35;9.68;;;3.70;;
73266;SDS011;61495;53.400;7.608;2022-12-18T16:24:00;8.15;;;3.38;;
73266;SDS011;61495;53.400;7.608;2022-12-18T16:26:26;8.10;;;3.33;;
73266;SDS011;61495;53.400;7.608;2022-12-18T16:28:51;9.27;;;4.05;;
73266;SDS011;61495;53.400;7.608;2022-12-18T16:31:18;7.72;;;3.67;;
73266;SDS011;61495;53.400;7.608;2022-12-18T16:33:43;8.25;;;4.53;;
73266;SDS011;61495;53.400;7.608;2022-12-18T16:36:09;6.53;;;3.20;;
73266;SDS011;61495;53.400;7.608;2022-12-18T16:40:59;7.87;;;3.50;;
73266;SDS011;61495;53.400;7.608;2022-12-18T16:43:43;9.98;;;3.72;;
73266;SDS011;61495;53.400;7.608;2022-12-18T16:46:08;8.93;;;3.55;;
73266;SDS011;61495;53.400;7.608;2022-12-18T16:48:34;8.02;;;3.75;;
73266;SDS011;61495;53.400;7.608;2022-12-18T16:51:03;8.90;;;3.30;;
73266;SDS011;61495;53.400;7.608;2022-12-18T16:53:29;8.07;;;3.38;;